createdAt,value
2018-12-15T00:01:55.261Z,22.73
2018-12-15T00:04:23.226Z,21.50
2018-12-15T00:06:51.545Z,22.80
2018-12-15T00:09:19.304Z,21.00
2018-12-15T00:11:47.066Z,23.63
2018-12-15T00:14:14.811Z,24.70
2018-12-15T00:16:42.510Z,27.23
2018-12-15T00:19:10.205Z,23.53
2018-12-15T00:21:37.858Z,23.50
2018-12-15T00:24:05.919Z,26.23
2018-12-15T00:26:33.602Z,21.93
2018-12-15T00:29:01.206Z,24.53
2018-12-15T00:31:29.746Z,22.33
2018-12-15T00:33:57.443Z,20.80
2018-12-15T00:36:25.405Z,23.80
2018-12-15T00:38:53.126Z,23.90
2018-12-15T00:41:20.920Z,22.70
2018-12-15T00:43:51.676Z,24.27
2018-12-15T00:46:19.379Z,22.03
2018-12-15T00:48:46.991Z,23.60
2018-12-15T00:51:16.657Z,22.67
2018-12-15T00:53:44.227Z,22.20
2018-12-15T00:56:11.962Z,22.60
2018-12-15T00:58:39.684Z,23.20
2018-12-15T01:01:07.392Z,23.30
2018-12-15T01:03:35.417Z,24.50
2018-12-15T01:06:03.099Z,23.00
2018-12-15T01:08:30.727Z,24.87
2018-12-15T01:10:58.357Z,24.77
2018-12-15T01:13:26.018Z,22.77
2018-12-15T01:15:53.745Z,25.40
2018-12-15T01:18:21.517Z,23.67
2018-12-15T01:20:49.219Z,23.50
2018-12-15T01:23:16.828Z,22.73
2018-12-15T01:25:47.689Z,23.90
2018-12-15T01:28:15.760Z,24.30
2018-12-15T01:30:43.433Z,23.00
2018-12-15T01:33:11.017Z,24.00
2018-12-15T01:35:39.351Z,23.47
2018-12-15T01:38:06.911Z,20.27
2018-12-15T01:40:34.481Z,22.43
2018-12-15T01:43:02.080Z,21.73
2018-12-15T01:45:30.043Z,18.73
2018-12-15T01:47:57.763Z,21.00
2018-12-15T01:50:25.397Z,20.13
2018-12-15T01:52:53.038Z,21.37
2018-12-15T01:55:20.599Z,20.73
2018-12-15T01:57:48.117Z,19.87
2018-12-15T02:00:15.834Z,18.27
2018-12-15T02:02:43.440Z,19.03
2018-12-15T02:05:11.065Z,20.87
2018-12-15T02:07:38.684Z,18.60
2018-12-15T02:10:06.503Z,19.07
2018-12-15T02:12:34.048Z,19.30
2018-12-15T02:15:01.666Z,18.53
2018-12-15T02:17:33.553Z,19.50
2018-12-15T02:19:59.254Z,19.00
2018-12-15T02:22:26.885Z,18.93
2018-12-15T02:24:54.587Z,20.97
2018-12-15T02:27:22.207Z,18.67
2018-12-15T02:29:49.792Z,18.43
2018-12-15T02:32:17.409Z,18.70
2018-12-15T02:34:45.050Z,18.30
2018-12-15T02:37:12.659Z,18.70
2018-12-15T02:39:40.265Z,17.67
2018-12-15T02:42:07.981Z,19.97
2018-12-15T02:44:35.687Z,18.10
2018-12-15T02:47:03.274Z,15.43
2018-12-15T02:49:30.887Z,17.20
2018-12-15T02:51:58.577Z,16.43
2018-12-15T02:54:26.255Z,18.37
2018-12-15T02:56:54.029Z,16.97
2018-12-15T02:59:21.717Z,17.97
2018-12-15T03:01:49.272Z,17.43
2018-12-15T03:04:16.871Z,16.87
2018-12-15T03:06:44.789Z,18.00
2018-12-15T03:09:12.634Z,18.37
2018-12-15T03:11:50.950Z,17.57
2018-12-15T03:14:18.674Z,16.60
2018-12-15T03:16:58.170Z,16.33
2018-12-15T03:19:25.899Z,16.93
2018-12-15T03:21:53.551Z,18.57
2018-12-15T03:24:21.250Z,19.60
2018-12-15T03:26:48.907Z,15.70
2018-12-15T03:29:16.464Z,18.53
2018-12-15T03:31:44.053Z,17.07
2018-12-15T03:34:11.595Z,16.00
2018-12-15T03:36:39.287Z,16.53
2018-12-15T03:39:06.999Z,17.07
2018-12-15T03:41:34.682Z,15.53
2018-12-15T03:44:02.444Z,16.53
2018-12-15T03:46:30.042Z,14.27
2018-12-15T03:48:57.606Z,16.37
2018-12-15T03:51:25.217Z,17.30
2018-12-15T03:53:55.913Z,16.83
2018-12-15T03:56:23.491Z,16.57
2018-12-15T03:58:51.189Z,17.60
2018-12-15T04:01:18.844Z,19.63
2018-12-15T04:03:46.383Z,19.87
2018-12-15T04:06:13.969Z,20.13
2018-12-15T04:08:41.666Z,19.00
2018-12-15T04:11:09.388Z,18.90
2018-12-15T04:13:37.042Z,16.77
2018-12-15T04:16:04.666Z,19.60
2018-12-15T04:18:32.413Z,26.60
2018-12-15T04:21:00.261Z,32.03
2018-12-15T04:23:28.010Z,27.50
2018-12-15T04:25:55.778Z,27.27
2018-12-15T04:28:23.519Z,21.00
2018-12-15T04:30:51.263Z,21.73
2018-12-15T04:33:19.104Z,20.73
2018-12-15T04:35:46.853Z,21.83
2018-12-15T04:38:14.620Z,20.10
2018-12-15T04:40:42.623Z,20.17
2018-12-15T04:43:10.320Z,22.67
2018-12-15T04:45:38.050Z,21.93
2018-12-15T04:48:11.204Z,21.17
2018-12-15T04:50:35.550Z,24.57
2018-12-15T04:53:03.262Z,20.13
2018-12-15T04:55:30.997Z,20.47
2018-12-15T04:57:58.519Z,23.17
2018-12-15T05:00:26.304Z,22.00
2018-12-15T05:02:53.935Z,20.60
2018-12-15T05:05:22.609Z,23.90
2018-12-15T05:07:50.142Z,18.40
2018-12-15T05:10:18.618Z,19.37
2018-12-15T05:12:46.913Z,17.87
2018-12-15T05:15:14.545Z,19.60
2018-12-15T05:17:42.388Z,18.07
2018-12-15T05:20:10.123Z,19.87
2018-12-15T05:22:37.743Z,17.97
2018-12-15T05:25:05.541Z,18.13
2018-12-15T05:27:33.637Z,19.57
2018-12-15T05:30:01.576Z,17.43
2018-12-15T05:32:29.218Z,15.03
2018-12-15T05:34:56.845Z,16.27
2018-12-15T05:37:24.483Z,15.93
2018-12-15T05:39:52.043Z,16.47
2018-12-15T05:42:19.703Z,16.53
2018-12-15T05:44:47.260Z,17.90
2018-12-15T05:47:14.877Z,16.60
2018-12-15T05:49:42.492Z,16.67
2018-12-15T05:52:10.779Z,17.57
2018-12-15T05:54:38.499Z,15.70
2018-12-15T05:57:06.082Z,15.60
2018-12-15T05:59:33.754Z,17.10
2018-12-15T06:02:02.852Z,15.23
2018-12-15T06:04:30.410Z,17.87
2018-12-15T06:06:58.085Z,15.10
2018-12-15T06:09:25.679Z,16.73
2018-12-15T06:11:53.242Z,14.67
2018-12-15T06:14:20.916Z,16.20
2018-12-15T06:16:48.570Z,16.70
2018-12-15T06:19:16.085Z,14.37
2018-12-15T06:21:43.782Z,15.97
2018-12-15T06:24:11.371Z,16.23
2018-12-15T06:26:39.296Z,18.00
2018-12-15T06:29:20.875Z,16.63
2018-12-15T06:31:48.572Z,18.77
2018-12-15T06:34:16.307Z,17.70
2018-12-15T06:36:43.843Z,17.70
2018-12-15T06:39:11.407Z,19.20
2018-12-15T06:41:39.041Z,19.73
2018-12-15T06:44:07.614Z,20.83
2018-12-15T06:46:35.258Z,19.60
2018-12-15T06:49:02.988Z,15.63
2018-12-15T06:51:30.640Z,17.53
2018-12-15T06:53:58.452Z,17.53
2018-12-15T06:56:26.067Z,17.27
2018-12-15T06:58:53.766Z,19.60
2018-12-15T07:01:21.399Z,19.13
2018-12-15T07:03:49.089Z,19.23
2018-12-15T07:06:16.693Z,18.67
2018-12-15T07:08:44.569Z,19.97
2018-12-15T07:11:12.287Z,18.63
2018-12-15T07:13:40.996Z,19.07
2018-12-15T07:16:08.596Z,19.60
2018-12-15T07:18:36.321Z,19.40
2018-12-15T07:21:03.998Z,21.00
2018-12-15T07:23:31.657Z,22.23
2018-12-15T07:25:59.245Z,22.40
2018-12-15T07:28:26.958Z,23.47
2018-12-15T07:30:54.624Z,22.70
2018-12-15T07:33:23.388Z,21.83
2018-12-15T07:35:51.078Z,22.40
2018-12-15T07:38:18.776Z,20.27
2018-12-15T07:40:46.498Z,20.70
2018-12-15T07:43:14.834Z,22.30
2018-12-15T07:45:42.525Z,23.37
2018-12-15T07:48:10.232Z,22.43
2018-12-15T07:50:37.842Z,21.77
2018-12-15T07:53:05.574Z,24.07
2018-12-15T07:55:33.258Z,22.50
2018-12-15T07:58:02.701Z,28.33
2018-12-15T08:00:30.199Z,20.90
2018-12-15T08:02:57.913Z,22.80
2018-12-15T08:05:26.274Z,21.70
2018-12-15T08:07:54.051Z,18.40
2018-12-15T08:10:23.342Z,16.60
2018-12-15T08:13:02.585Z,22.67
2018-12-15T08:15:31.148Z,17.90
2018-12-15T08:17:58.683Z,17.40
2018-12-15T08:20:26.257Z,16.90
2018-12-15T08:22:53.954Z,20.40
2018-12-15T08:25:21.604Z,22.50
2018-12-15T08:27:49.482Z,17.60
2018-12-15T08:30:17.616Z,20.60
2018-12-15T08:32:45.595Z,18.50
2018-12-15T08:35:13.395Z,16.90
2018-12-15T08:37:41.075Z,19.07
2018-12-15T08:40:08.707Z,19.43
2018-12-15T08:42:36.398Z,17.20
2018-12-15T08:45:04.595Z,19.73
2018-12-15T08:47:32.319Z,25.33
2018-12-15T08:50:00.237Z,20.43
2018-12-15T08:52:28.339Z,20.07
2018-12-15T08:54:56.447Z,22.57
2018-12-15T08:57:24.776Z,21.40
2018-12-15T08:59:52.574Z,45.60
2018-12-15T09:02:20.195Z,27.83
2018-12-15T09:04:47.824Z,21.70
2018-12-15T09:07:16.603Z,19.10
2018-12-15T09:09:44.907Z,20.07
2018-12-15T09:12:13.505Z,21.20
2018-12-15T09:14:41.869Z,22.60
2018-12-15T09:17:09.563Z,20.60
2018-12-15T09:19:37.240Z,22.13
2018-12-15T09:22:11.568Z,19.00
2018-12-15T09:24:35.008Z,16.30
2018-12-15T09:27:02.612Z,17.13
2018-12-15T09:29:30.212Z,37.27
2018-12-15T09:31:58.212Z,31.07
2018-12-15T09:34:25.964Z,21.07
2018-12-15T09:36:54.094Z,21.03
2018-12-15T09:39:21.885Z,19.73
2018-12-15T09:41:50.377Z,20.70
2018-12-15T09:44:19.915Z,21.67
2018-12-15T09:46:47.603Z,20.80
2018-12-15T09:49:17.954Z,20.37
2018-12-15T09:51:45.580Z,18.40
2018-12-15T09:54:14.171Z,23.53
2018-12-15T09:56:42.939Z,24.30
2018-12-15T09:59:10.563Z,23.43
2018-12-15T10:01:38.055Z,20.10
2018-12-15T10:04:05.629Z,20.93
2018-12-15T10:06:33.327Z,21.23
2018-12-15T10:09:00.968Z,20.47
2018-12-15T10:11:28.509Z,22.70
2018-12-15T10:13:56.086Z,21.13
2018-12-15T10:16:24.742Z,20.13
2018-12-15T10:18:52.381Z,23.97
2018-12-15T10:21:20.300Z,20.13
2018-12-15T10:23:47.979Z,33.43
2018-12-15T10:26:15.694Z,17.87
2018-12-15T10:28:43.600Z,19.20
2018-12-15T10:31:16.979Z,20.70
2018-12-15T10:33:44.642Z,21.83
2018-12-15T10:36:12.233Z,21.07
2018-12-15T10:38:39.966Z,17.40
2018-12-15T10:41:11.617Z,17.63
2018-12-15T10:43:40.144Z,20.20
2018-12-15T10:46:07.775Z,21.97
2018-12-15T10:48:36.297Z,21.93
2018-12-15T10:51:04.125Z,21.97
2018-12-15T10:53:31.973Z,18.67
2018-12-15T10:55:59.573Z,18.43
2018-12-15T10:58:27.162Z,18.07
2018-12-15T11:00:56.687Z,18.33
2018-12-15T11:03:24.443Z,20.23
2018-12-15T11:05:53.074Z,21.13
2018-12-15T11:08:22.801Z,21.13
2018-12-15T11:10:50.455Z,19.93
2018-12-15T11:13:17.975Z,19.10
2018-12-15T11:15:46.077Z,20.50
2018-12-15T11:18:14.689Z,22.20
2018-12-15T11:20:42.190Z,23.60
2018-12-15T11:23:10.205Z,17.93
2018-12-15T11:25:37.817Z,17.20
2018-12-15T11:28:05.502Z,15.30
2018-12-15T11:30:33.180Z,17.60
2018-12-15T11:35:53.729Z,22.00
2018-12-15T11:38:21.472Z,33.00
2018-12-15T11:40:49.223Z,30.70
2018-12-15T11:43:16.986Z,21.37
2018-12-15T11:45:44.741Z,22.00
2018-12-15T11:48:13.329Z,20.93
2018-12-15T11:50:41.232Z,19.60
2018-12-15T11:53:08.911Z,21.00
2018-12-15T11:55:36.605Z,21.97
2018-12-15T11:58:04.387Z,21.00
2018-12-15T12:00:32.143Z,20.83
2018-12-15T12:02:59.626Z,20.17
2018-12-15T12:05:27.320Z,19.57
2018-12-15T12:07:54.981Z,20.57
2018-12-15T12:10:22.595Z,19.67
2018-12-15T12:12:50.320Z,19.90
2018-12-15T12:15:18.003Z,22.90
2018-12-15T12:17:46.378Z,22.00
2018-12-15T12:20:14.502Z,23.07
2018-12-15T12:22:43.073Z,22.23
2018-12-15T12:27:57.917Z,26.87
2018-12-15T12:30:26.017Z,19.30
2018-12-15T12:32:54.995Z,22.93
2018-12-15T12:35:23.043Z,20.40
2018-12-15T12:37:51.721Z,19.97
2018-12-15T12:40:19.954Z,21.93
2018-12-15T12:42:48.130Z,19.67
2018-12-15T12:50:42.473Z,20.47
2018-12-15T12:53:11.047Z,22.30
2018-12-15T12:55:40.330Z,19.90
2018-12-15T12:58:09.448Z,21.20
2018-12-15T13:00:37.627Z,21.07
2018-12-15T13:03:05.783Z,19.20
2018-12-15T13:05:34.010Z,23.27
2018-12-15T13:08:02.905Z,18.47
2018-12-15T13:10:30.951Z,15.27
2018-12-15T13:12:58.882Z,16.93
2018-12-15T13:15:27.106Z,16.73
2018-12-15T13:17:55.179Z,18.20
2018-12-15T13:20:23.176Z,19.13
2018-12-15T13:22:51.432Z,18.27
2018-12-15T13:25:19.605Z,18.80
2018-12-15T13:27:47.515Z,15.93
2018-12-15T13:30:17.597Z,19.70
2018-12-15T13:32:45.254Z,15.17
2018-12-15T13:35:13.356Z,16.80
2018-12-15T13:37:41.562Z,18.47
2018-12-15T13:40:10.672Z,16.77
2018-12-15T13:42:38.574Z,17.73
2018-12-15T13:47:53.154Z,20.73
2018-12-15T13:50:21.288Z,23.07
2018-12-15T13:52:48.956Z,18.23
2018-12-15T13:55:17.500Z,19.37
2018-12-15T13:57:45.724Z,15.33
2018-12-15T14:00:14.210Z,18.80
2018-12-15T14:02:42.534Z,17.83
2018-12-15T14:05:10.438Z,20.63
2018-12-15T14:07:38.544Z,18.53
2018-12-15T14:10:06.874Z,18.17
2018-12-15T14:12:41.074Z,21.57
2018-12-15T14:15:09.234Z,21.33
2018-12-15T14:17:37.381Z,21.57
2018-12-15T14:20:05.801Z,25.27
2018-12-15T14:22:35.869Z,19.53
2018-12-15T14:25:04.970Z,21.57
2018-12-15T14:27:33.011Z,19.83
2018-12-15T14:30:01.261Z,20.80
2018-12-15T14:32:32.988Z,21.83
2018-12-15T14:35:01.660Z,24.50
2018-12-15T14:37:29.806Z,21.70
2018-12-15T14:39:58.050Z,23.87
2018-12-15T14:42:26.396Z,23.93
2018-12-15T14:44:54.778Z,23.37
2018-12-15T14:47:22.786Z,21.40
2018-12-15T14:49:50.947Z,22.23
2018-12-15T14:52:19.344Z,21.83
2018-12-15T14:54:48.504Z,21.70
2018-12-15T14:57:18.879Z,21.80
2018-12-15T14:59:47.078Z,19.17
2018-12-15T15:02:15.106Z,21.07
2018-12-15T15:04:43.382Z,19.40
2018-12-15T15:07:11.264Z,19.43
2018-12-15T15:09:39.261Z,21.40
2018-12-15T15:12:07.407Z,20.10
2018-12-15T15:14:35.705Z,20.10
2018-12-15T15:17:03.751Z,21.37
2018-12-15T15:19:32.372Z,20.80
2018-12-15T15:22:00.824Z,18.87
2018-12-15T15:24:29.011Z,21.87
2018-12-15T15:26:56.846Z,26.60
2018-12-15T15:29:25.345Z,22.53
2018-12-15T15:31:53.473Z,22.70
2018-12-15T15:34:21.439Z,23.17
2018-12-15T15:36:49.421Z,21.97
2018-12-15T15:39:17.607Z,22.60
2018-12-15T15:41:46.138Z,24.67
2018-12-15T15:44:14.495Z,25.97
2018-12-15T15:46:42.513Z,28.17
2018-12-15T15:49:11.252Z,26.80
2018-12-15T15:51:39.783Z,26.27
2018-12-15T15:54:08.320Z,25.80
2018-12-15T15:56:36.189Z,25.60
2018-12-15T15:59:05.207Z,27.90
2018-12-15T16:01:33.328Z,30.00
2018-12-15T16:04:01.772Z,30.97
2018-12-15T16:24:52.275Z,28.23
2018-12-15T16:27:20.611Z,29.57
2018-12-15T16:29:48.485Z,26.73
2018-12-15T16:32:16.617Z,27.93
2018-12-15T16:34:44.524Z,27.20
2018-12-15T16:37:18.931Z,27.90
2018-12-15T16:39:46.967Z,25.70
2018-12-15T16:42:16.084Z,23.80
2018-12-15T16:44:44.315Z,27.37
2018-12-15T16:47:12.432Z,30.17
2018-12-15T16:49:41.053Z,29.93
2018-12-15T16:52:09.098Z,27.20
2018-12-15T16:54:37.433Z,27.30
2018-12-15T16:57:05.782Z,27.23
2018-12-15T16:59:34.046Z,25.70
2018-12-15T17:02:02.209Z,28.27
2018-12-15T17:04:30.434Z,25.20
2018-12-15T17:06:58.668Z,23.57
2018-12-15T17:09:27.001Z,28.37
2018-12-15T17:11:55.312Z,24.60
2018-12-15T17:14:23.540Z,25.07
2018-12-15T17:16:51.923Z,27.73
2018-12-15T17:19:20.705Z,26.07
2018-12-15T17:21:48.736Z,25.40
2018-12-15T17:24:16.867Z,24.10
2018-12-15T17:26:44.923Z,28.73
2018-12-15T17:29:13.372Z,26.00
2018-12-15T17:31:41.620Z,25.30
2018-12-15T17:34:09.502Z,25.50
2018-12-15T17:36:37.561Z,25.07
2018-12-15T17:39:06.530Z,25.70
2018-12-15T17:41:34.723Z,22.67
2018-12-15T17:44:02.779Z,27.30
2018-12-15T17:46:30.964Z,29.00
2018-12-15T17:48:59.052Z,30.50
2018-12-15T17:51:27.236Z,28.90
2018-12-15T17:53:55.465Z,27.20
2018-12-15T17:56:23.637Z,27.27
2018-12-15T17:58:51.547Z,26.70
2018-12-15T18:01:20.160Z,26.03
2018-12-15T18:03:48.496Z,27.60
2018-12-15T18:06:20.484Z,24.77
2018-12-15T18:08:48.732Z,26.43
2018-12-15T18:11:17.706Z,30.00
2018-12-15T18:13:45.786Z,28.10
2018-12-15T18:16:14.230Z,28.70
2018-12-15T18:18:42.400Z,29.77
2018-12-15T18:21:10.898Z,26.67
2018-12-15T18:23:39.558Z,27.40
2018-12-15T18:26:07.723Z,24.73
2018-12-15T18:28:36.203Z,27.77
2018-12-15T18:31:04.668Z,26.83
2018-12-15T18:33:37.023Z,30.37
2018-12-15T18:36:02.809Z,24.57
2018-12-15T18:38:32.614Z,27.70
2018-12-15T18:41:04.200Z,28.10
2018-12-15T18:43:32.112Z,27.43
2018-12-15T18:46:00.548Z,27.60
2018-12-15T18:48:32.263Z,32.60
2018-12-15T18:51:00.873Z,27.60
2018-12-15T18:53:28.787Z,29.30
2018-12-15T18:55:56.758Z,28.50
2018-12-15T18:58:24.886Z,30.30
2018-12-15T19:00:54.772Z,28.73
2018-12-15T19:03:23.771Z,30.13
2018-12-15T19:05:51.784Z,28.97
2018-12-15T19:08:20.105Z,27.60
2018-12-15T19:10:48.367Z,25.77
2018-12-15T19:13:16.728Z,28.00
2018-12-15T19:15:49.013Z,30.47
2018-12-15T19:18:17.455Z,29.23
2018-12-15T19:20:45.490Z,28.40
2018-12-15T19:23:14.048Z,29.40
2018-12-15T19:25:42.055Z,30.03
2018-12-15T19:30:36.132Z,28.63
2018-12-15T19:33:04.656Z,29.90
2018-12-15T19:35:32.820Z,29.83
2018-12-15T19:38:00.925Z,32.17
2018-12-15T19:40:29.053Z,31.97
2018-12-15T19:42:57.457Z,25.83
2018-12-15T19:45:25.807Z,29.43
2018-12-15T19:47:54.116Z,30.50
2018-12-15T19:50:22.884Z,30.53
2018-12-15T19:52:51.236Z,31.10
2018-12-15T19:55:19.468Z,29.03
2018-12-15T19:57:47.618Z,29.10
2018-12-15T20:00:15.930Z,28.03
2018-12-15T20:02:44.431Z,25.90
2018-12-15T20:05:14.052Z,29.40
2018-12-15T20:07:42.563Z,29.20
2018-12-15T20:10:11.293Z,29.40
2018-12-15T20:12:39.362Z,29.07
2018-12-15T20:15:07.865Z,27.90
2018-12-15T20:17:38.598Z,28.13
2018-12-15T20:20:08.085Z,28.40
2018-12-15T20:22:37.401Z,28.30
2018-12-15T20:25:06.499Z,28.60
2018-12-15T20:27:34.994Z,28.60
2018-12-15T20:30:03.371Z,29.30
2018-12-15T20:32:31.798Z,26.97
2018-12-15T20:35:00.221Z,29.60
2018-12-15T20:37:28.272Z,27.20
2018-12-15T20:39:56.648Z,30.80
2018-12-15T20:42:24.886Z,29.83
2018-12-15T20:44:52.944Z,34.10
2018-12-15T20:47:27.701Z,28.07
2018-12-15T20:49:51.403Z,24.93
2018-12-15T20:52:19.611Z,24.70
2018-12-15T20:54:48.127Z,25.20
2018-12-15T20:57:16.163Z,25.10
2018-12-15T20:59:44.385Z,23.43
2018-12-15T21:02:12.844Z,22.90
2018-12-15T21:04:40.700Z,23.50
2018-12-15T21:07:08.421Z,23.47
2018-12-15T21:09:36.078Z,22.47
2018-12-15T21:12:04.545Z,25.67
2018-12-15T21:14:32.626Z,21.20
2018-12-15T21:17:00.132Z,20.10
2018-12-15T21:19:27.628Z,20.40
2018-12-15T21:21:55.187Z,23.07
2018-12-15T21:24:22.847Z,21.00
2018-12-15T21:26:50.481Z,20.60
2018-12-15T21:29:17.964Z,19.20
2018-12-15T21:31:46.840Z,22.30
2018-12-15T21:34:14.733Z,22.00
2018-12-15T21:36:42.850Z,22.53
2018-12-15T21:39:10.383Z,19.73
2018-12-15T21:41:38.047Z,21.43
2018-12-15T21:44:06.155Z,23.47
2018-12-15T21:46:34.620Z,23.93
2018-12-15T21:49:02.724Z,21.23
2018-12-15T21:51:30.238Z,21.90
2018-12-15T21:53:58.788Z,21.60
2018-12-15T21:56:26.434Z,20.93
2018-12-15T21:58:54.095Z,20.93
2018-12-15T22:01:26.123Z,24.13
2018-12-15T22:03:53.810Z,18.80
2018-12-15T22:06:21.321Z,20.13
2018-12-15T22:08:48.876Z,17.93
2018-12-15T22:11:16.456Z,19.90
2018-12-15T22:13:44.305Z,19.40
2018-12-15T22:16:11.912Z,19.30
2018-12-15T22:18:41.573Z,18.73
2018-12-15T22:21:09.080Z,19.70
2018-12-15T22:23:36.579Z,19.90
2018-12-15T22:26:04.083Z,22.13
2018-12-15T22:28:31.578Z,19.07
2018-12-15T22:30:59.223Z,17.43
2018-12-15T22:33:26.713Z,18.80
2018-12-15T22:35:54.705Z,19.73
2018-12-15T22:38:22.223Z,19.27
2018-12-15T22:40:50.073Z,19.50
2018-12-15T22:43:17.764Z,16.80
2018-12-15T22:45:45.373Z,17.80
2018-12-15T22:48:12.900Z,17.90
2018-12-15T22:50:40.473Z,17.43
2018-12-15T22:53:08.108Z,16.50
2018-12-15T22:55:35.726Z,17.73
2018-12-15T22:58:03.427Z,20.10
2018-12-15T23:00:33.129Z,18.20
2018-12-15T23:03:00.743Z,14.67
2018-12-15T23:05:28.415Z,17.30
2018-12-15T23:07:56.026Z,16.87
2018-12-15T23:10:23.666Z,18.03
2018-12-15T23:12:51.162Z,18.47
2018-12-15T23:15:18.723Z,17.20
2018-12-15T23:17:46.409Z,16.87
2018-12-15T23:20:14.013Z,17.70
2018-12-15T23:22:41.613Z,15.23
2018-12-15T23:25:10.013Z,16.33
2018-12-15T23:27:37.629Z,17.07
2018-12-15T23:30:06.501Z,16.03
2018-12-15T23:32:34.192Z,16.00
2018-12-15T23:35:02.520Z,17.83
2018-12-15T23:37:31.029Z,19.00
2018-12-15T23:39:58.618Z,17.83
2018-12-15T23:42:26.290Z,17.73
2018-12-15T23:44:53.993Z,20.70
2018-12-15T23:47:21.604Z,18.07
2018-12-15T23:49:50.224Z,19.13
2018-12-15T23:52:23.263Z,17.07
2018-12-15T23:54:47.523Z,17.60
2018-12-15T23:57:15.257Z,20.20
2018-12-15T23:59:42.903Z,19.53
